Sign in

Advertise on goboko.com

You can reach many thousands of active pilots each month by advertising on goboko.com.

Please contact us for details.

Advertising

Info

Aviation weather - KVGT

METAR KVGT 241753Z VRB05KT 10SM CLR 22/M12 A2999 RMK AO2 SLP158 T02221122 10222 20122 50002

TAF KVGT 241720Z 2418/2518 VRB05KT P6SM FEW250 FM242000 13007KT P6SM FEW250 FM242300 19010KT P6SM FEW250 FM251400 21012KT P6SM SCT140 BKN250

ADDS Experimental. Do not use for flight-related decisions.

Javascript required. Ce site nécessite javascript